createdAt,value
2022-11-07T00:02:05.925Z,92.59
2022-11-07T00:04:34.051Z,95.60
2022-11-07T00:07:02.071Z,93.82
2022-11-07T00:09:29.662Z,94.14
2022-11-07T00:11:57.541Z,98.38
2022-11-07T00:14:25.563Z,100.00
2022-11-07T00:16:53.620Z,100.00
2022-11-07T00:19:22.421Z,98.50
2022-11-07T00:21:50.166Z,100.00
2022-11-07T00:24:18.595Z,100.00
2022-11-07T00:26:46.947Z,100.00
2022-11-07T00:29:20.262Z,100.00
2022-11-07T00:31:48.700Z,100.00
2022-11-07T00:34:16.624Z,99.95
2022-11-07T00:36:44.224Z,100.00
2022-11-07T00:39:12.154Z,99.73
2022-11-07T00:41:39.632Z,97.85
2022-11-07T00:44:07.200Z,98.88
2022-11-07T00:46:34.777Z,99.34
2022-11-07T00:49:02.302Z,97.62
2022-11-07T00:51:29.802Z,98.52
2022-11-07T00:53:57.543Z,97.95
2022-11-07T00:56:25.881Z,98.35
2022-11-07T00:58:57.143Z,97.79
2022-11-07T01:01:31.406Z,97.53
2022-11-07T01:04:17.733Z,98.44
2022-11-07T01:06:46.379Z,100.00
2022-11-07T01:09:22.042Z,100.00
2022-11-07T01:11:49.993Z,100.00
2022-11-07T01:14:20.127Z,100.00
2022-11-07T01:16:47.690Z,100.00
2022-11-07T01:19:15.379Z,100.00
2022-11-07T01:21:43.426Z,100.00
2022-11-07T01:24:12.701Z,100.00
2022-11-07T01:26:41.709Z,100.00
2022-11-07T01:29:09.855Z,100.00
2022-11-07T01:31:37.425Z,100.00
2022-11-07T01:34:05.312Z,100.00
2022-11-07T01:36:33.002Z,100.00
2022-11-07T01:39:00.575Z,100.00
2022-11-07T01:41:31.317Z,100.00
2022-11-07T01:44:02.934Z,100.00
2022-11-07T01:46:34.238Z,100.00
2022-11-07T01:49:04.499Z,100.00
2022-11-07T01:51:37.155Z,100.00
2022-11-07T01:54:06.332Z,100.00
2022-11-07T01:56:37.189Z,100.00
2022-11-07T01:59:06.054Z,100.00
2022-11-07T02:01:33.887Z,100.00
2022-11-07T02:04:02.213Z,100.00
2022-11-07T02:06:55.685Z,100.00
2022-11-07T02:09:23.220Z,100.00
2022-11-07T02:11:51.736Z,100.00
2022-11-07T02:14:19.792Z,100.00
2022-11-07T02:16:49.798Z,100.00
2022-11-07T02:19:36.312Z,100.00
2022-11-07T02:22:40.652Z,100.00
2022-11-07T02:25:12.510Z,100.00
2022-11-07T02:27:41.909Z,100.00
2022-11-07T02:30:16.099Z,100.00
2022-11-07T02:32:44.355Z,100.00
2022-11-07T02:35:36.458Z,100.00
2022-11-07T02:38:27.956Z,100.00
2022-11-07T02:41:13.575Z,100.00
2022-11-07T02:43:52.773Z,100.00
2022-11-07T02:46:22.833Z,100.00
2022-11-07T02:48:54.606Z,100.00
2022-11-07T02:51:22.138Z,100.00
2022-11-07T02:53:49.701Z,100.00
2022-11-07T02:56:18.097Z,100.00
2022-11-07T02:58:48.636Z,100.00
2022-11-07T03:01:18.871Z,100.00
2022-11-07T03:03:48.960Z,100.00
2022-11-07T03:06:19.697Z,100.00
2022-11-07T03:08:47.731Z,100.00
2022-11-07T03:11:20.939Z,100.00
2022-11-07T03:13:49.829Z,100.00
2022-11-07T03:16:18.821Z,100.00
2022-11-07T03:18:46.421Z,100.00
2022-11-07T03:21:14.371Z,100.00
2022-11-07T03:23:41.915Z,100.00
2022-11-07T03:26:09.488Z,100.00
2022-11-07T03:28:37.056Z,100.00
2022-11-07T03:31:05.210Z,100.00
2022-11-07T03:33:32.768Z,100.00
2022-11-07T03:36:00.409Z,100.00
2022-11-07T03:38:28.145Z,100.00
2022-11-07T03:40:55.693Z,100.00
2022-11-07T03:43:24.412Z,100.00
2022-11-07T03:45:51.984Z,100.00
2022-11-07T03:48:19.454Z,100.00
2022-11-07T03:50:47.078Z,100.00
2022-11-07T03:53:16.458Z,100.00
2022-11-07T03:55:46.889Z,100.00
2022-11-07T03:58:14.483Z,100.00
2022-11-07T04:00:42.601Z,100.00
2022-11-07T04:03:10.284Z,100.00
2022-11-07T04:05:37.900Z,100.00
2022-11-07T04:08:05.834Z,100.00
2022-11-07T04:10:33.624Z,100.00
2022-11-07T04:13:19.882Z,100.00
2022-11-07T04:16:06.177Z,100.00
2022-11-07T04:18:35.978Z,100.00
2022-11-07T04:21:03.419Z,100.00
2022-11-07T04:23:31.109Z,100.00
2022-11-07T04:26:17.506Z,100.00
2022-11-07T04:28:45.150Z,100.00
2022-11-07T04:31:12.670Z,100.00
2022-11-07T04:33:40.211Z,100.00
2022-11-07T04:36:08.205Z,100.00
2022-11-07T04:38:35.952Z,100.00
2022-11-07T04:41:04.745Z,100.00
2022-11-07T04:43:32.418Z,100.00
2022-11-07T04:45:59.889Z,100.00
2022-11-07T04:48:27.426Z,100.00
2022-11-07T04:50:54.979Z,100.00
2022-11-07T04:53:22.425Z,100.00
2022-11-07T04:55:49.904Z,100.00
2022-11-07T04:58:17.964Z,100.00
2022-11-07T05:00:45.648Z,100.00
2022-11-07T05:03:13.628Z,100.00
2022-11-07T05:05:41.426Z,100.00
2022-11-07T05:08:09.069Z,100.00
2022-11-07T05:10:36.784Z,100.00
2022-11-07T05:13:04.230Z,100.00
2022-11-07T05:15:31.717Z,100.00
2022-11-07T05:17:59.201Z,100.00
2022-11-07T05:20:32.559Z,100.00
2022-11-07T05:23:13.575Z,100.00
2022-11-07T05:25:49.736Z,100.00
2022-11-07T05:28:33.675Z,100.00
2022-11-07T05:31:06.169Z,100.00
2022-11-07T05:33:34.342Z,100.00
2022-11-07T05:36:34.190Z,100.00
2022-11-07T05:39:01.737Z,100.00
2022-11-07T05:41:29.294Z,100.00
2022-11-07T05:43:59.842Z,100.00
2022-11-07T05:46:27.327Z,100.00
2022-11-07T05:48:59.739Z,100.00
2022-11-07T05:51:28.539Z,100.00
2022-11-07T05:53:56.065Z,100.00
2022-11-07T05:56:23.646Z,100.00
2022-11-07T05:58:51.236Z,100.00
2022-11-07T06:01:18.863Z,100.00
2022-11-07T06:03:46.441Z,100.00
2022-11-07T06:06:13.933Z,100.00
2022-11-07T06:08:41.473Z,100.00
2022-11-07T06:11:11.600Z,100.00
2022-11-07T06:13:39.129Z,100.00
2022-11-07T06:16:06.892Z,100.00
2022-11-07T06:18:41.419Z,100.00
2022-11-07T06:21:09.255Z,100.00
2022-11-07T06:23:36.836Z,100.00
2022-11-07T06:26:04.391Z,100.00
2022-11-07T06:28:32.006Z,100.00
2022-11-07T06:31:00.718Z,100.00
2022-11-07T06:34:24.264Z,100.00
2022-11-07T06:51:55.296Z,100.00
2022-11-07T06:55:25.617Z,100.00
2022-11-07T07:05:25.210Z,100.00
2022-11-07T07:08:02.023Z,100.00
2022-11-07T07:10:37.205Z,100.00
2022-11-07T07:13:05.114Z,100.00
2022-11-07T07:15:49.871Z,100.00
2022-11-07T07:18:20.064Z,100.00
2022-11-07T07:20:49.295Z,100.00
2022-11-07T07:23:18.780Z,100.00
2022-11-07T07:25:47.513Z,100.00
2022-11-07T07:28:15.219Z,100.00
2022-11-07T07:30:47.206Z,100.00
2022-11-07T07:33:18.536Z,100.00
2022-11-07T07:35:49.087Z,100.00
2022-11-07T07:38:23.862Z,100.00
2022-11-07T07:40:53.872Z,100.00
2022-11-07T07:43:21.367Z,100.00
2022-11-07T07:46:02.560Z,100.00
2022-11-07T07:48:31.270Z,100.00
2022-11-07T07:50:59.697Z,100.00
2022-11-07T07:53:32.883Z,100.00
2022-11-07T07:56:02.814Z,100.00
2022-11-07T07:58:30.287Z,100.00
2022-11-07T08:00:58.048Z,99.71
2022-11-07T08:03:32.175Z,87.35
2022-11-07T08:06:07.709Z,78.79
2022-11-07T08:08:38.192Z,77.56
2022-11-07T08:11:09.966Z,67.42
2022-11-07T08:13:37.439Z,64.34
2022-11-07T08:16:07.827Z,62.03
2022-11-07T08:18:40.069Z,64.69
2022-11-07T08:21:08.168Z,63.93
2022-11-07T08:23:36.162Z,57.26
2022-11-07T08:26:04.697Z,55.10
2022-11-07T08:28:35.441Z,59.33
2022-11-07T08:31:12.009Z,58.61
2022-11-07T08:33:40.102Z,54.68
2022-11-07T08:36:08.150Z,51.61
2022-11-07T08:38:36.221Z,49.97
2022-11-07T08:41:05.698Z,49.60
2022-11-07T08:43:33.289Z,54.33
2022-11-07T08:46:00.829Z,48.64
2022-11-07T08:48:28.453Z,51.74
2022-11-07T08:50:57.873Z,50.76
2022-11-07T08:53:27.124Z,48.63
2022-11-07T08:56:04.608Z,48.40
2022-11-07T08:58:32.947Z,44.80
2022-11-07T09:01:01.072Z,51.57
2022-11-07T09:03:45.227Z,47.78
2022-11-07T09:06:14.388Z,43.29
2022-11-07T09:08:41.971Z,45.15
2022-11-07T09:11:09.736Z,48.87
2022-11-07T09:13:37.385Z,50.22
2022-11-07T09:16:05.719Z,47.93
2022-11-07T09:18:33.620Z,42.69
2022-11-07T09:21:01.217Z,51.44
2022-11-07T09:23:28.925Z,45.95
2022-11-07T09:26:00.534Z,49.82
2022-11-07T09:28:28.808Z,45.87
2022-11-07T09:30:57.988Z,49.32
2022-11-07T09:33:26.266Z,57.62
2022-11-07T09:35:54.146Z,49.80
2022-11-07T09:38:21.783Z,49.49
2022-11-07T09:41:08.062Z,50.96
2022-11-07T09:43:35.675Z,48.63
2022-11-07T09:46:26.926Z,45.78
2022-11-07T09:49:00.880Z,51.31
2022-11-07T09:51:37.810Z,48.43
2022-11-07T09:54:15.144Z,46.80
2022-11-07T09:56:43.997Z,47.56
2022-11-07T09:59:34.030Z,53.14
2022-11-07T10:02:01.662Z,52.69
2022-11-07T10:04:29.252Z,56.46
2022-11-07T10:07:04.106Z,60.99
2022-11-07T10:09:55.775Z,59.03
2022-11-07T10:12:47.919Z,55.66
2022-11-07T10:15:39.532Z,53.89
2022-11-07T10:18:50.707Z,60.35
2022-11-07T10:21:39.496Z,59.13
2022-11-07T10:24:37.779Z,58.94
2022-11-07T10:27:10.456Z,58.84
2022-11-07T10:29:52.500Z,62.91
2022-11-07T10:32:35.865Z,57.04
2022-11-07T10:35:26.811Z,61.81
2022-11-07T10:38:00.417Z,60.52
2022-11-07T10:40:36.186Z,61.65
2022-11-07T10:43:07.728Z,61.70
2022-11-07T10:45:37.409Z,62.23
2022-11-07T10:48:05.791Z,63.76
2022-11-07T10:50:33.492Z,62.02
2022-11-07T10:53:05.546Z,61.59
2022-11-07T10:55:43.821Z,62.22
2022-11-07T10:58:21.695Z,59.44
2022-11-07T11:01:09.649Z,60.23
2022-11-07T11:03:45.355Z,58.39
2022-11-07T11:06:19.072Z,63.55
2022-11-07T11:08:48.148Z,61.26
2022-11-07T11:11:21.396Z,62.48
2022-11-07T11:13:49.392Z,60.29
2022-11-07T11:16:28.403Z,60.27
2022-11-07T11:19:01.179Z,59.61
2022-11-07T11:21:46.411Z,59.91
2022-11-07T11:24:23.690Z,63.22
2022-11-07T11:26:52.548Z,62.09
2022-11-07T11:29:27.090Z,61.57
2022-11-07T11:31:57.358Z,60.52
2022-11-07T11:34:58.609Z,61.37
2022-11-07T11:37:29.262Z,60.12
2022-11-07T11:40:09.412Z,60.10
2022-11-07T11:43:00.717Z,60.49
2022-11-07T11:45:39.972Z,60.45
2022-11-07T11:48:22.625Z,59.32
2022-11-07T11:50:54.300Z,58.81
2022-11-07T11:53:22.784Z,58.35
2022-11-07T11:56:25.514Z,58.08
2022-11-07T11:59:11.572Z,62.40
2022-11-07T12:01:47.515Z,59.32
2022-11-07T12:04:30.015Z,57.25
2022-11-07T12:07:32.773Z,59.58
2022-11-07T12:10:07.425Z,58.51
2022-11-07T12:13:09.640Z,58.48
2022-11-07T12:15:44.203Z,57.76
2022-11-07T12:18:41.408Z,58.65
2022-11-07T12:21:27.543Z,61.67
2022-11-07T12:24:16.452Z,58.65
2022-11-07T12:27:09.717Z,58.85
2022-11-07T12:29:55.508Z,58.03
2022-11-07T12:32:28.746Z,59.14
2022-11-07T12:35:07.602Z,59.22
2022-11-07T12:38:19.946Z,59.00
2022-11-07T12:41:15.007Z,59.68
2022-11-07T12:43:42.571Z,54.96
2022-11-07T12:46:30.481Z,56.00
2022-11-07T12:48:57.960Z,57.42
2022-11-07T12:52:03.908Z,55.95
2022-11-07T12:54:49.695Z,56.49
2022-11-07T12:57:21.759Z,54.70
2022-11-07T12:59:57.368Z,56.19
2022-11-07T13:02:37.817Z,60.90
2022-11-07T13:05:23.461Z,56.86
2022-11-07T13:08:00.457Z,57.13
2022-11-07T13:10:35.941Z,56.76
2022-11-07T13:13:07.285Z,59.56
2022-11-07T13:16:00.906Z,57.22
2022-11-07T13:18:27.826Z,56.75
2022-11-07T13:21:07.200Z,56.15
2022-11-07T13:23:34.749Z,57.05
2022-11-07T13:26:25.867Z,56.04
2022-11-07T13:29:01.239Z,56.63
2022-11-07T13:31:35.288Z,56.31
2022-11-07T13:34:25.246Z,57.67
2022-11-07T13:37:00.436Z,55.73
2022-11-07T13:39:30.009Z,57.78
2022-11-07T13:41:59.455Z,55.86
2022-11-07T13:44:32.416Z,58.09
2022-11-07T13:47:05.291Z,57.31
2022-11-07T13:49:44.491Z,58.59
2022-11-07T13:52:37.672Z,57.75
2022-11-07T13:55:11.210Z,55.53
2022-11-07T13:57:42.656Z,59.21
2022-11-07T14:00:14.955Z,56.24
2022-11-07T14:02:52.957Z,57.40
2022-11-07T14:05:36.256Z,57.85
2022-11-07T14:08:17.730Z,58.26
2022-11-07T14:10:47.854Z,55.71
2022-11-07T14:13:26.841Z,56.71
2022-11-07T14:15:58.797Z,56.55
2022-11-07T14:18:30.006Z,58.13
2022-11-07T14:20:59.112Z,58.95
2022-11-07T14:23:30.093Z,60.06
2022-11-07T14:26:16.867Z,62.30
2022-11-07T14:28:44.450Z,63.34
2022-11-07T14:31:29.660Z,65.36
2022-11-07T14:34:02.280Z,62.15
2022-11-07T14:36:31.419Z,58.23
2022-11-07T14:39:11.435Z,60.57
2022-11-07T14:41:44.769Z,59.29
2022-11-07T14:44:18.790Z,61.65
2022-11-07T14:46:47.696Z,62.46
2022-11-07T14:49:26.287Z,60.94
2022-11-07T14:51:55.749Z,63.84
2022-11-07T14:54:31.421Z,67.36
2022-11-07T14:57:00.370Z,68.23
2022-11-07T14:59:33.403Z,70.74
2022-11-07T15:02:13.556Z,74.18
2022-11-07T15:04:46.756Z,75.96
2022-11-07T15:07:35.428Z,79.08
2022-11-07T15:10:17.370Z,76.70
2022-11-07T15:12:56.286Z,73.28
2022-11-07T15:15:32.185Z,78.78
2022-11-07T15:18:03.084Z,74.23
2022-11-07T15:20:30.586Z,77.91
2022-11-07T15:22:59.189Z,79.21
2022-11-07T15:25:39.066Z,79.84
2022-11-07T15:28:18.882Z,83.21
2022-11-07T15:30:47.851Z,82.74
2022-11-07T15:33:21.670Z,80.75
2022-11-07T15:35:54.657Z,80.31
2022-11-07T15:38:27.939Z,81.77
2022-11-07T15:40:55.802Z,83.61
2022-11-07T15:43:23.550Z,83.10
2022-11-07T15:45:53.481Z,84.49
2022-11-07T15:48:24.135Z,83.53
2022-11-07T15:50:51.927Z,84.52
2022-11-07T15:53:27.709Z,86.15
2022-11-07T15:55:59.027Z,83.63
2022-11-07T15:58:29.461Z,84.31
2022-11-07T16:01:01.683Z,84.70
2022-11-07T16:03:29.559Z,84.97
2022-11-07T16:06:03.176Z,86.52
2022-11-07T16:08:33.533Z,86.66
2022-11-07T16:11:02.428Z,89.64
2022-11-07T16:13:30.128Z,88.47
2022-11-07T16:16:00.885Z,88.83
2022-11-07T16:18:35.081Z,88.88
2022-11-07T16:21:02.643Z,90.71
2022-11-07T16:23:30.234Z,91.50
2022-11-07T16:25:58.494Z,93.35
2022-11-07T16:28:30.634Z,92.91
2022-11-07T16:30:59.228Z,93.53
2022-11-07T16:33:27.679Z,94.33
2022-11-07T16:35:58.596Z,94.14
2022-11-07T16:38:31.334Z,93.99
2022-11-07T16:41:08.864Z,94.46
2022-11-07T16:43:39.744Z,94.83
2022-11-07T16:46:17.404Z,95.92
2022-11-07T16:48:47.045Z,96.17
2022-11-07T16:51:16.287Z,96.60
2022-11-07T16:53:44.632Z,95.53
2022-11-07T16:56:22.327Z,95.60
2022-11-07T16:58:50.382Z,95.53
2022-11-07T17:01:18.105Z,96.42
2022-11-07T17:03:45.801Z,97.11
2022-11-07T17:06:31.740Z,97.60
2022-11-07T17:09:06.138Z,98.56
2022-11-07T17:11:38.409Z,98.32
2022-11-07T17:14:05.995Z,98.83
2022-11-07T17:16:36.740Z,100.00
2022-11-07T17:19:05.573Z,98.80
2022-11-07T17:21:40.727Z,100.00
2022-11-07T17:24:08.546Z,100.00
2022-11-07T17:26:38.962Z,100.00
2022-11-07T17:29:21.284Z,99.97
2022-11-07T17:31:48.918Z,99.96
2022-11-07T17:34:16.496Z,98.98
2022-11-07T17:36:47.672Z,99.67
2022-11-07T17:39:18.046Z,100.00
2022-11-07T17:41:47.737Z,99.25
2022-11-07T17:44:18.769Z,99.98
2022-11-07T17:46:48.456Z,99.79
2022-11-07T17:49:18.792Z,100.00
2022-11-07T17:51:46.448Z,100.00
2022-11-07T17:54:15.426Z,100.00
2022-11-07T17:56:43.275Z,100.00
2022-11-07T17:59:17.843Z,100.00
2022-11-07T18:01:45.861Z,100.00
2022-11-07T18:04:14.008Z,100.00
2022-11-07T18:06:43.221Z,100.00
2022-11-07T18:09:14.674Z,100.00
2022-11-07T18:11:45.815Z,100.00
2022-11-07T18:14:14.642Z,100.00
2022-11-07T18:16:42.708Z,100.00
2022-11-07T18:19:11.148Z,100.00
2022-11-07T18:21:39.144Z,100.00
2022-11-07T18:24:07.119Z,100.00
2022-11-07T18:26:36.927Z,100.00
2022-11-07T18:29:07.450Z,100.00
2022-11-07T18:31:35.408Z,100.00
2022-11-07T18:34:06.630Z,100.00
2022-11-07T18:36:38.243Z,100.00
2022-11-07T18:39:08.756Z,100.00
2022-11-07T18:41:36.251Z,100.00
2022-11-07T18:44:05.258Z,100.00
2022-11-07T18:46:33.329Z,100.00
2022-11-07T18:49:00.883Z,100.00
2022-11-07T18:51:28.562Z,100.00
2022-11-07T18:53:56.286Z,100.00
2022-11-07T18:56:23.752Z,100.00
2022-11-07T18:58:51.461Z,100.00
2022-11-07T19:01:26.634Z,100.00
2022-11-07T19:03:56.022Z,100.00
2022-11-07T19:06:25.720Z,100.00
2022-11-07T19:08:53.405Z,100.00
2022-11-07T19:11:28.803Z,100.00
2022-11-07T19:13:59.734Z,100.00
2022-11-07T19:16:32.896Z,100.00
2022-11-07T19:19:00.402Z,100.00
2022-11-07T19:21:27.957Z,100.00
2022-11-07T19:23:55.515Z,100.00
2022-11-07T19:26:24.834Z,100.00
2022-11-07T19:28:54.145Z,100.00
2022-11-07T19:31:21.718Z,100.00
2022-11-07T19:33:49.276Z,100.00
2022-11-07T19:36:20.061Z,100.00
2022-11-07T19:38:48.638Z,100.00
2022-11-07T19:41:17.809Z,100.00
2022-11-07T19:43:49.986Z,100.00
2022-11-07T19:46:20.480Z,100.00
2022-11-07T19:48:49.116Z,100.00
2022-11-07T19:51:22.218Z,100.00
2022-11-07T19:53:58.285Z,100.00
2022-11-07T19:56:26.903Z,100.00
2022-11-07T19:58:55.160Z,100.00
2022-11-07T20:01:26.008Z,100.00
2022-11-07T20:03:54.945Z,100.00
2022-11-07T20:06:25.944Z,100.00
2022-11-07T20:08:53.823Z,100.00
2022-11-07T20:11:24.044Z,100.00
2022-11-07T20:13:52.937Z,100.00
2022-11-07T20:16:21.108Z,100.00
2022-11-07T20:18:48.816Z,100.00
2022-11-07T20:21:23.077Z,100.00
2022-11-07T20:23:53.826Z,100.00
2022-11-07T20:26:23.262Z,100.00
2022-11-07T20:28:51.368Z,100.00
2022-11-07T20:31:21.681Z,100.00
2022-11-07T20:33:49.580Z,100.00
2022-11-07T20:36:18.130Z,100.00
2022-11-07T20:38:45.715Z,100.00
2022-11-07T20:41:14.486Z,100.00
2022-11-07T20:43:44.448Z,100.00
2022-11-07T20:46:15.101Z,100.00
2022-11-07T20:48:43.397Z,100.00
2022-11-07T20:51:16.710Z,100.00
2022-11-07T20:53:49.719Z,100.00
2022-11-07T20:56:25.094Z,100.00
2022-11-07T20:58:53.949Z,100.00
2022-11-07T21:01:25.109Z,100.00
2022-11-07T21:03:53.119Z,100.00
2022-11-07T21:06:20.858Z,100.00
2022-11-07T21:08:50.298Z,100.00
2022-11-07T21:11:18.118Z,100.00
2022-11-07T21:13:52.444Z,100.00
2022-11-07T21:16:22.087Z,100.00
2022-11-07T21:18:51.103Z,100.00
2022-11-07T21:21:27.610Z,100.00
2022-11-07T21:23:57.384Z,100.00
2022-11-07T21:26:31.771Z,100.00
2022-11-07T21:29:00.363Z,100.00
2022-11-07T21:31:31.326Z,100.00
2022-11-07T21:33:59.442Z,100.00
2022-11-07T21:36:29.422Z,100.00
2022-11-07T21:38:58.391Z,100.00
2022-11-07T21:41:26.583Z,100.00
2022-11-07T21:43:54.036Z,100.00
2022-11-07T21:46:27.345Z,100.00
2022-11-07T21:48:55.907Z,100.00
2022-11-07T21:51:23.276Z,100.00
2022-11-07T21:53:51.377Z,100.00
2022-11-07T21:56:24.926Z,100.00
2022-11-07T21:58:54.808Z,100.00
2022-11-07T22:01:22.847Z,100.00
2022-11-07T22:04:06.133Z,100.00
2022-11-07T22:06:36.653Z,100.00
2022-11-07T22:09:06.099Z,100.00
2022-11-07T22:11:33.746Z,100.00
2022-11-07T22:14:01.262Z,100.00
2022-11-07T22:16:29.031Z,100.00
2022-11-07T22:18:56.453Z,100.00
2022-11-07T22:21:23.980Z,100.00
2022-11-07T22:23:51.611Z,100.00
2022-11-07T22:26:21.719Z,100.00
2022-11-07T22:28:50.251Z,100.00
2022-11-07T22:31:27.046Z,100.00
2022-11-07T22:33:55.131Z,100.00
2022-11-07T22:36:23.517Z,100.00
2022-11-07T22:38:51.690Z,100.00
2022-11-07T22:41:21.865Z,100.00
2022-11-07T22:43:50.366Z,100.00
2022-11-07T22:46:20.767Z,100.00
2022-11-07T22:48:49.508Z,100.00
2022-11-07T22:51:23.197Z,100.00
2022-11-07T22:54:02.332Z,100.00
2022-11-07T22:56:30.975Z,100.00
2022-11-07T22:58:59.192Z,100.00
2022-11-07T23:01:29.942Z,100.00
2022-11-07T23:03:58.760Z,100.00
2022-11-07T23:06:28.634Z,100.00
2022-11-07T23:08:57.879Z,100.00
2022-11-07T23:14:18.710Z,100.00
2022-11-07T23:16:51.524Z,100.00
2022-11-07T23:19:21.656Z,100.00
2022-11-07T23:21:53.524Z,100.00
2022-11-07T23:24:21.290Z,100.00
2022-11-07T23:26:49.442Z,100.00
2022-11-07T23:29:20.043Z,100.00
2022-11-07T23:31:49.788Z,100.00
2022-11-07T23:34:19.167Z,100.00
2022-11-07T23:36:46.626Z,100.00
2022-11-07T23:39:16.590Z,100.00
2022-11-07T23:41:44.566Z,100.00
2022-11-07T23:44:12.801Z,100.00
2022-11-07T23:46:59.439Z,100.00
2022-11-07T23:49:55.622Z,100.00
2022-11-07T23:52:23.114Z,100.00
2022-11-07T23:55:08.800Z,100.00
2022-11-07T23:57:57.247Z,100.00
